createdAt,value
2017-04-23T00:00:27.337Z,7.31
2017-04-23T00:01:07.954Z,7.43
2017-04-23T00:01:48.542Z,7.4
2017-04-23T00:02:29.137Z,7.33
2017-04-23T00:03:09.748Z,7.39
2017-04-23T00:03:50.346Z,7.36
2017-04-23T00:04:30.968Z,7.38
2017-04-23T00:05:12.288Z,7.33
2017-04-23T00:05:52.878Z,7.31
2017-04-23T00:06:33.473Z,7.28
2017-04-23T00:07:14.073Z,7.24
2017-04-23T00:07:54.678Z,7.25
2017-04-23T00:08:35.272Z,7.31
2017-04-23T00:09:15.926Z,7.25
2017-04-23T00:09:56.533Z,7.21
2017-04-23T00:10:37.165Z,7.21
2017-04-23T00:11:17.811Z,7.15
2017-04-23T00:11:58.450Z,7.31
2017-04-23T00:12:39.028Z,7.32
2017-04-23T00:13:19.611Z,7.2
2017-04-23T00:14:00.218Z,7.25
2017-04-23T00:14:40.824Z,7.36
2017-04-23T00:15:21.433Z,7.24
2017-04-23T00:16:02.012Z,7.23
2017-04-23T00:16:42.659Z,7.32
2017-04-23T00:17:23.245Z,7.31
2017-04-23T00:18:03.840Z,7.28
2017-04-23T00:18:44.476Z,7.29
2017-04-23T00:19:25.089Z,7.29
2017-04-23T00:20:05.738Z,7.25
2017-04-23T00:20:46.335Z,7.25
2017-04-23T00:21:26.932Z,7.24
2017-04-23T00:22:07.576Z,7.25
2017-04-23T00:22:48.180Z,7.31
2017-04-23T00:23:28.777Z,7.31
2017-04-23T00:24:09.386Z,7.29
2017-04-23T00:24:49.958Z,7.29
2017-04-23T00:25:30.573Z,7.29
2017-04-23T00:26:11.174Z,7.32
2017-04-23T00:26:51.756Z,7.18
2017-04-23T00:27:32.348Z,7.33
2017-04-23T00:28:12.967Z,7.32
2017-04-23T00:28:53.587Z,7.28
2017-04-23T00:29:34.201Z,7.31
2017-04-23T00:30:14.788Z,7.28
2017-04-23T00:30:55.407Z,7.31
2017-04-23T00:31:36.045Z,7.17
2017-04-23T00:32:16.664Z,7.24
2017-04-23T00:32:57.257Z,7.21
2017-04-23T00:33:37.849Z,7.18
2017-04-23T00:34:18.552Z,7.18
2017-04-23T00:34:59.135Z,7.2
2017-04-23T00:35:39.741Z,7.18
2017-04-23T00:36:20.382Z,7.2
2017-04-23T00:37:00.974Z,7.18
2017-04-23T00:37:41.603Z,7.24
2017-04-23T00:38:22.197Z,7.15
2017-04-23T00:39:02.802Z,7.17
2017-04-23T00:39:43.404Z,7.18
2017-04-23T00:40:23.999Z,7.17
2017-04-23T00:41:04.616Z,7.2
2017-04-23T00:41:45.213Z,7.23
2017-04-23T00:42:25.855Z,7.23
2017-04-23T00:43:06.415Z,7.21
2017-04-23T00:43:47.025Z,7.21
2017-04-23T00:44:27.634Z,7.21
2017-04-23T00:45:08.245Z,7.24
2017-04-23T00:45:48.840Z,7.15
2017-04-23T00:46:29.473Z,7.17
2017-04-23T00:47:10.022Z,7.24
2017-04-23T00:47:50.602Z,7.21
2017-04-23T00:48:31.189Z,7.2
2017-04-23T00:49:11.796Z,7.18
2017-04-23T00:49:52.404Z,7.18
2017-04-23T00:50:32.997Z,7.2
2017-04-23T00:51:13.611Z,7.21
2017-04-23T00:51:54.209Z,7.15
2017-04-23T00:52:34.806Z,7.23
2017-04-23T00:53:15.417Z,7.24
2017-04-23T00:53:56.001Z,7.28
2017-04-23T00:54:36.589Z,7.24
2017-04-23T00:55:17.182Z,7.21
2017-04-23T00:55:57.774Z,7.21
2017-04-23T00:56:38.401Z,7.2
2017-04-23T00:57:18.992Z,7.1
2017-04-23T00:57:59.626Z,7.21
2017-04-23T00:58:40.224Z,7.17
2017-04-23T00:59:20.808Z,7.11
2017-04-23T01:00:01.388Z,7.24
2017-04-23T01:00:41.981Z,7.21
2017-04-23T01:01:22.580Z,7.23
2017-04-23T01:02:03.157Z,7.2
2017-04-23T01:02:43.725Z,7.21
2017-04-23T01:03:24.349Z,7.25
2017-04-23T01:04:04.937Z,7.15
2017-04-23T01:04:45.546Z,7.18
2017-04-23T01:05:26.130Z,7.15
2017-04-23T01:06:06.733Z,7.24
2017-04-23T01:06:47.333Z,7.18
2017-04-23T01:07:27.945Z,7.24
2017-04-23T01:08:08.535Z,7.21
2017-04-23T01:08:49.152Z,7.2
2017-04-23T01:09:29.738Z,7.21
2017-04-23T01:10:10.339Z,7.2
2017-04-23T01:10:50.906Z,7.28
2017-04-23T01:11:31.473Z,7.21
2017-04-23T01:12:12.073Z,7.21
2017-04-23T01:12:52.691Z,7.2
2017-04-23T01:13:33.291Z,7.28
2017-04-23T01:14:13.876Z,7.24
2017-04-23T01:14:54.462Z,7.21
2017-04-23T01:15:35.052Z,7.15
2017-04-23T01:16:15.616Z,7.21
2017-04-23T01:16:56.187Z,7.25
2017-04-23T01:17:36.795Z,7.2
2017-04-23T01:18:17.387Z,7.21
2017-04-23T01:18:58.035Z,7.25
2017-04-23T01:19:38.617Z,7.21
2017-04-23T01:20:19.197Z,7.23
2017-04-23T01:20:59.802Z,7.14
2017-04-23T01:21:40.391Z,7.21
2017-04-23T01:22:20.983Z,7.23
2017-04-23T01:23:01.559Z,7.28
2017-04-23T01:23:42.125Z,7.18
2017-04-23T01:24:22.697Z,7.2
2017-04-23T01:25:03.269Z,7.15
2017-04-23T01:25:43.862Z,7.17
2017-04-23T01:26:24.454Z,7.17
2017-04-23T01:27:05.050Z,7.21
2017-04-23T01:27:45.655Z,7.23
2017-04-23T01:28:26.253Z,7.17
2017-04-23T01:29:06.855Z,7.23
2017-04-23T01:29:47.443Z,7.14
2017-04-23T01:30:28.037Z,7.15
2017-04-23T01:31:08.605Z,7.23
2017-04-23T01:31:49.177Z,7.2
2017-04-23T01:32:29.751Z,7.15
2017-04-23T01:33:10.391Z,7.21
2017-04-23T01:33:50.979Z,7.13
2017-04-23T01:34:31.598Z,7.15
2017-04-23T01:35:12.192Z,7.13
2017-04-23T01:35:52.778Z,7.15
2017-04-23T01:36:33.351Z,7.14
2017-04-23T01:37:13.935Z,7.15
2017-04-23T01:37:54.509Z,7.15
2017-04-23T01:38:35.087Z,7.15
2017-04-23T01:39:15.667Z,7.11
2017-04-23T01:39:56.272Z,7.1
2017-04-23T01:40:36.884Z,7.03
2017-04-23T01:41:17.440Z,7.11
2017-04-23T01:41:58.031Z,7.07
2017-04-23T01:42:38.621Z,7.11
2017-04-23T01:43:19.208Z,7.06
2017-04-23T01:43:59.826Z,7.06
2017-04-23T01:44:40.462Z,7.05
2017-04-23T01:45:21.067Z,7.05
2017-04-23T01:46:01.680Z,7.03
2017-04-23T01:46:42.345Z,6.95
2017-04-23T01:47:22.924Z,6.96
2017-04-23T01:48:03.495Z,6.96
2017-04-23T01:48:44.087Z,7
2017-04-23T01:49:24.657Z,6.95
2017-04-23T01:50:05.239Z,7.03
2017-04-23T01:50:45.850Z,7.11
2017-04-23T01:51:26.443Z,7.07
2017-04-23T01:52:07.023Z,7.07
2017-04-23T01:52:47.615Z,7.02
2017-04-23T01:53:28.212Z,7.03
2017-04-23T01:54:08.800Z,7.02
2017-04-23T01:54:49.373Z,7.11
2017-04-23T01:55:29.991Z,7.02
2017-04-23T01:56:10.572Z,7.07
2017-04-23T01:56:51.143Z,7.05
2017-04-23T01:57:31.737Z,7.06
2017-04-23T01:58:12.312Z,7.07
2017-04-23T01:58:52.935Z,7.05
2017-04-23T01:59:33.534Z,7.06
2017-04-23T02:00:14.124Z,7.02
2017-04-23T02:00:54.741Z,7.07
2017-04-23T02:01:35.323Z,7.02
2017-04-23T02:02:15.914Z,7.11
2017-04-23T02:02:56.504Z,7.02
2017-04-23T02:03:37.088Z,7.05
2017-04-23T02:04:17.652Z,6.97
2017-04-23T02:04:58.222Z,6.97
2017-04-23T02:05:38.806Z,7.05
2017-04-23T02:06:19.385Z,6.99
2017-04-23T02:06:59.976Z,7.05
2017-04-23T02:07:40.557Z,7.06
2017-04-23T02:08:21.141Z,7.07
2017-04-23T02:09:01.734Z,7.03
2017-04-23T02:09:42.349Z,7.05
2017-04-23T02:10:22.910Z,7.15
2017-04-23T02:11:03.480Z,7.1
2017-04-23T02:11:44.052Z,7.2
2017-04-23T02:12:24.669Z,7.11
2017-04-23T02:13:05.257Z,7.17
2017-04-23T02:13:45.847Z,7.17
2017-04-23T02:14:26.422Z,7.13
2017-04-23T02:15:07.030Z,7.15
2017-04-23T02:15:47.603Z,7.15
2017-04-23T02:16:28.203Z,7.11
2017-04-23T02:17:08.775Z,7.17
2017-04-23T02:17:49.372Z,7.21
2017-04-23T02:18:29.977Z,7.18
2017-04-23T02:19:10.561Z,7.17
2017-04-23T02:19:51.240Z,7.18
2017-04-23T02:20:31.863Z,7.2
2017-04-23T02:21:12.449Z,7.21
2017-04-23T02:21:53.050Z,7.2
2017-04-23T02:22:33.612Z,7.2
2017-04-23T02:23:14.195Z,7.15
2017-04-23T02:23:54.783Z,7.18
2017-04-23T02:24:35.375Z,7.17
2017-04-23T02:25:15.961Z,7.14
2017-04-23T02:25:56.551Z,7.17
2017-04-23T02:26:37.129Z,7.13
2017-04-23T02:27:17.709Z,7.13
2017-04-23T02:27:58.332Z,7.14
2017-04-23T02:28:38.911Z,7.13
2017-04-23T02:29:19.495Z,7.2
2017-04-23T02:30:00.113Z,7.14
2017-04-23T02:30:40.693Z,7.13
2017-04-23T02:31:21.337Z,7.15
2017-04-23T02:32:01.914Z,7.23
2017-04-23T02:32:42.488Z,7.23
2017-04-23T02:33:23.064Z,7.17
2017-04-23T02:34:03.726Z,7.17
2017-04-23T02:34:44.401Z,7.2
2017-04-23T02:35:25.000Z,7.18
2017-04-23T02:36:05.611Z,7.17
2017-04-23T02:36:46.174Z,7.2
2017-04-23T02:37:26.783Z,7.17
2017-04-23T02:38:07.401Z,7.15
2017-04-23T02:38:47.992Z,7.14
2017-04-23T02:39:28.569Z,7.15
2017-04-23T02:40:09.189Z,7.25
2017-04-23T02:40:49.772Z,7.2
2017-04-23T02:41:30.387Z,7.23
2017-04-23T02:42:10.957Z,7.17
2017-04-23T02:42:51.523Z,7.21
2017-04-23T02:43:32.120Z,7.18
2017-04-23T02:44:12.741Z,7.23
2017-04-23T02:44:53.344Z,7.21
2017-04-23T02:45:33.916Z,7.18
2017-04-23T02:46:14.523Z,7.25
2017-04-23T02:46:55.105Z,7.14
2017-04-23T02:47:35.676Z,7.14
2017-04-23T02:48:16.265Z,7.2
2017-04-23T02:48:56.860Z,7.25
2017-04-23T02:49:37.432Z,7.21
2017-04-23T02:50:18.009Z,7.24
2017-04-23T02:50:58.579Z,7.15
2017-04-23T02:51:39.159Z,7.21
2017-04-23T02:52:19.747Z,7.24
2017-04-23T02:53:00.322Z,7.21
2017-04-23T02:53:40.924Z,7.18
2017-04-23T02:54:21.531Z,7.25
2017-04-23T02:55:02.122Z,7.28
2017-04-23T02:55:42.699Z,7.23
2017-04-23T02:56:23.306Z,7.23
2017-04-23T02:57:03.884Z,7.21
2017-04-23T02:57:44.547Z,7.18
2017-04-23T02:58:25.086Z,7.2
2017-04-23T02:59:05.658Z,7.15
2017-04-23T02:59:46.224Z,7.2
2017-04-23T03:00:26.791Z,7.31
2017-04-23T03:01:07.363Z,7.32
2017-04-23T03:01:48.001Z,7.32
2017-04-23T03:02:28.571Z,7.35
2017-04-23T03:03:09.142Z,7.31
2017-04-23T03:03:49.732Z,7.25
2017-04-23T03:04:30.342Z,7.29
2017-04-23T03:05:10.943Z,7.31
2017-04-23T03:05:51.522Z,7.31
2017-04-23T03:06:32.109Z,7.36
2017-04-23T03:07:12.691Z,7.24
2017-04-23T03:07:53.263Z,7.21
2017-04-23T03:08:33.839Z,7.18
2017-04-23T03:09:14.450Z,7.17
2017-04-23T03:09:55.038Z,7.24
2017-04-23T03:10:35.638Z,7.23
2017-04-23T03:11:16.219Z,7.17
2017-04-23T03:11:56.864Z,7.31
2017-04-23T03:12:37.457Z,7.2
2017-04-23T03:13:18.081Z,7.23
2017-04-23T03:13:58.659Z,7.11
2017-04-23T03:14:39.252Z,7.14
2017-04-23T03:15:19.820Z,7.15
2017-04-23T03:16:00.394Z,7.17
2017-04-23T03:16:40.962Z,7.2
2017-04-23T03:17:21.545Z,7.2
2017-04-23T03:18:02.130Z,7.17
2017-04-23T03:18:42.760Z,7.21
2017-04-23T03:19:23.386Z,7.24
2017-04-23T03:20:03.960Z,7.21
2017-04-23T03:20:44.552Z,7.23
2017-04-23T03:21:25.129Z,7.2
2017-04-23T03:22:05.717Z,7.2
2017-04-23T03:22:46.292Z,7.2
2017-04-23T03:23:26.912Z,7.11
2017-04-23T03:24:07.568Z,7.14
2017-04-23T03:24:48.119Z,7.17
2017-04-23T03:25:28.682Z,7.17
2017-04-23T03:26:09.272Z,7.18
2017-04-23T03:26:49.846Z,7.2
2017-04-23T03:27:30.426Z,7.18
2017-04-23T03:28:11.004Z,7.2
2017-04-23T03:28:51.618Z,7.21
2017-04-23T03:29:32.167Z,7.2
2017-04-23T03:30:12.761Z,7.2
2017-04-23T03:30:53.365Z,7.28
2017-04-23T03:31:33.957Z,7.18
2017-04-23T03:32:14.536Z,7.21
2017-04-23T03:32:55.120Z,7.17
2017-04-23T03:33:35.692Z,7.23
2017-04-23T03:34:16.262Z,7.32
2017-04-23T03:34:56.886Z,7.32
2017-04-23T03:35:37.489Z,7.25
2017-04-23T03:36:18.079Z,7.28
2017-04-23T03:36:58.746Z,7.32
2017-04-23T03:37:39.239Z,7.29
2017-04-23T03:38:19.802Z,7.31
2017-04-23T03:39:00.400Z,7.28
2017-04-23T03:39:40.996Z,7.29
2017-04-23T03:40:21.585Z,7.28
2017-04-23T03:41:02.169Z,7.28
2017-04-23T03:41:42.758Z,7.32
2017-04-23T03:42:23.345Z,7.24
2017-04-23T03:43:03.928Z,7.25
2017-04-23T03:43:44.512Z,7.24
2017-04-23T03:44:25.104Z,7.31
2017-04-23T03:45:05.685Z,7.18
2017-04-23T03:45:46.305Z,7.29
2017-04-23T03:46:26.873Z,7.18
2017-04-23T03:47:07.464Z,7.33
2017-04-23T03:47:48.060Z,7.32
2017-04-23T03:48:28.640Z,7.31
2017-04-23T03:49:09.227Z,7.28
2017-04-23T03:49:49.807Z,7.31
2017-04-23T03:50:30.398Z,7.28
2017-04-23T03:51:10.984Z,7.2
2017-04-23T03:51:51.571Z,7.25
2017-04-23T03:52:32.168Z,7.29
2017-04-23T03:53:12.765Z,7.25
2017-04-23T03:53:53.359Z,7.29
2017-04-23T03:54:33.962Z,7.31
2017-04-23T03:55:14.568Z,7.31
2017-04-23T03:55:55.156Z,7.28
2017-04-23T03:56:35.792Z,7.28
2017-04-23T03:57:16.460Z,7.2
2017-04-23T03:57:57.035Z,7.32
2017-04-23T03:58:37.647Z,7.33
2017-04-23T03:59:18.237Z,7.28
2017-04-23T03:59:58.808Z,7.24
2017-04-23T04:00:39.395Z,7.15
2017-04-23T04:01:20.011Z,7.28
2017-04-23T04:02:00.597Z,7.31
2017-04-23T04:02:41.175Z,7.15
2017-04-23T04:03:21.791Z,7.32
2017-04-23T04:04:02.374Z,7.25
2017-04-23T04:04:42.944Z,7.35
2017-04-23T04:05:23.555Z,7.32
2017-04-23T04:06:04.162Z,7.17
2017-04-23T04:06:44.748Z,7.23
2017-04-23T04:07:25.320Z,7.33
2017-04-23T04:08:05.935Z,7.33
2017-04-23T04:08:46.518Z,7.2
2017-04-23T04:09:27.087Z,7.28
2017-04-23T04:10:07.684Z,7.15
2017-04-23T04:10:48.262Z,7.33
2017-04-23T04:11:28.858Z,7.33
2017-04-23T04:12:09.537Z,7.17
2017-04-23T04:12:50.158Z,7.2
2017-04-23T04:13:30.774Z,7.15
2017-04-23T04:14:11.380Z,7.21
2017-04-23T04:14:51.952Z,7.2
2017-04-23T04:15:32.541Z,7.17
2017-04-23T04:16:13.117Z,7.18
2017-04-23T04:16:53.731Z,7.25
2017-04-23T04:17:34.306Z,7.2
2017-04-23T04:18:14.875Z,7.17
2017-04-23T04:18:55.462Z,7.23
2017-04-23T04:19:36.052Z,7.21
2017-04-23T04:20:16.622Z,7.17
2017-04-23T04:20:57.227Z,7.24
2017-04-23T04:21:37.814Z,7.17
2017-04-23T04:22:19.271Z,7.18
2017-04-23T04:23:56.891Z,7.29
2017-04-23T04:24:37.468Z,7.24
2017-04-23T04:25:18.057Z,7.2
2017-04-23T04:25:58.650Z,7.25
2017-04-23T04:26:39.279Z,7.2
2017-04-23T04:27:19.865Z,7.33
2017-04-23T04:28:00.435Z,7.29
2017-04-23T04:28:41.029Z,7.24
2017-04-23T04:29:21.606Z,7.17
2017-04-23T04:30:02.201Z,7.31
2017-04-23T04:30:42.794Z,7.29
2017-04-23T04:31:23.357Z,7.23
2017-04-23T04:32:03.966Z,7.33
2017-04-23T04:32:44.560Z,7.2
2017-04-23T04:33:25.167Z,7.32
2017-04-23T04:34:05.775Z,7.23
2017-04-23T04:34:46.358Z,7.28
2017-04-23T04:35:26.927Z,7.28
2017-04-23T04:36:07.551Z,7.25
2017-04-23T04:36:48.137Z,7.15
2017-04-23T04:37:28.718Z,7.29
2017-04-23T04:38:09.333Z,7.33
2017-04-23T04:38:49.944Z,7.28
2017-04-23T04:39:30.536Z,7.29
2017-04-23T04:40:11.109Z,7.31
2017-04-23T04:40:51.710Z,7.25
2017-04-23T04:41:32.311Z,7.21
2017-04-23T04:42:12.883Z,7.31
2017-04-23T04:42:53.470Z,7.31
2017-04-23T04:43:34.053Z,7.32
2017-04-23T04:44:14.639Z,7.32
2017-04-23T04:44:55.238Z,7.33
2017-04-23T04:45:35.825Z,7.36
2017-04-23T04:46:16.440Z,7.33
2017-04-23T04:46:57.011Z,7.33
2017-04-23T04:47:37.624Z,7.35
2017-04-23T04:48:18.252Z,7.29
2017-04-23T04:48:58.860Z,7.33
2017-04-23T04:49:39.527Z,7.29
2017-04-23T04:50:20.098Z,7.28
2017-04-23T04:51:00.683Z,7.29
2017-04-23T04:51:41.277Z,7.21
2017-04-23T04:52:21.858Z,7.18
2017-04-23T04:53:02.442Z,7.14
2017-04-23T04:53:43.048Z,7.17
2017-04-23T04:54:23.619Z,7.23
2017-04-23T04:55:04.202Z,7.21
2017-04-23T04:55:44.782Z,7.2
2017-04-23T04:56:25.394Z,7.21
2017-04-23T04:57:05.987Z,7.24
2017-04-23T04:57:46.574Z,7.21
2017-04-23T04:58:27.182Z,7.21
2017-04-23T04:59:07.757Z,7.25
2017-04-23T04:59:48.321Z,7.32
2017-04-23T05:00:28.904Z,7.2
2017-04-23T05:01:09.468Z,7.24
2017-04-23T05:01:50.040Z,7.24
2017-04-23T05:02:30.610Z,7.32
2017-04-23T05:03:11.195Z,7.28
2017-04-23T05:03:51.774Z,7.33
2017-04-23T05:04:32.349Z,7.35
2017-04-23T05:05:12.932Z,7.29
2017-04-23T05:05:53.523Z,7.36
2017-04-23T05:06:34.101Z,7.39
2017-04-23T05:07:14.672Z,7.42
2017-04-23T05:07:55.233Z,7.35
2017-04-23T05:08:35.812Z,7.42
2017-04-23T05:09:16.464Z,7.35
2017-04-23T05:09:57.047Z,7.33
2017-04-23T05:10:37.672Z,7.42
2017-04-23T05:11:18.240Z,7.42
2017-04-23T05:11:58.818Z,7.43
2017-04-23T05:12:39.407Z,7.38
2017-04-23T05:13:19.993Z,7.4
2017-04-23T05:14:00.562Z,7.48
2017-04-23T05:14:41.147Z,7.4
2017-04-23T05:15:21.735Z,7.43
2017-04-23T05:16:02.335Z,7.47
2017-04-23T05:16:42.914Z,7.42
2017-04-23T05:17:23.500Z,7.4
2017-04-23T05:18:04.066Z,7.4
2017-04-23T05:18:44.697Z,7.4
2017-04-23T05:19:25.266Z,7.45
2017-04-23T05:20:05.861Z,7.42
2017-04-23T05:20:46.452Z,7.42
2017-04-23T05:21:27.045Z,7.48
2017-04-23T05:22:07.629Z,7.43
2017-04-23T05:22:48.190Z,7.43
2017-04-23T05:23:28.754Z,7.54
2017-04-23T05:24:09.339Z,7.47
2017-04-23T05:24:49.923Z,7.51
2017-04-23T05:25:30.494Z,7.48
2017-04-23T05:26:11.067Z,7.48
2017-04-23T05:26:51.654Z,7.51
2017-04-23T05:27:32.244Z,7.53
2017-04-23T05:28:12.869Z,7.53
2017-04-23T05:28:53.446Z,7.48
2017-04-23T05:29:34.042Z,7.5
2017-04-23T05:30:14.605Z,7.43
2017-04-23T05:30:55.179Z,7.51
2017-04-23T05:31:35.756Z,7.45
2017-04-23T05:32:16.330Z,7.43
2017-04-23T05:32:56.907Z,7.48
2017-04-23T05:33:37.509Z,7.4
2017-04-23T05:34:18.081Z,7.43
2017-04-23T05:34:58.647Z,7.42
2017-04-23T05:35:39.243Z,7.42
2017-04-23T05:36:19.812Z,7.45
2017-04-23T05:37:00.379Z,7.43
2017-04-23T05:37:41.010Z,7.48
2017-04-23T05:38:21.630Z,7.43
2017-04-23T05:39:02.210Z,7.43
2017-04-23T05:39:42.810Z,7.53
2017-04-23T05:40:23.378Z,7.53
2017-04-23T05:41:03.949Z,7.45
2017-04-23T05:41:44.533Z,7.5
2017-04-23T05:42:25.108Z,7.63
2017-04-23T05:43:05.681Z,7.66
2017-04-23T05:43:46.247Z,7.66
2017-04-23T05:44:26.886Z,7.61
2017-04-23T05:45:07.452Z,7.6
2017-04-23T05:45:48.047Z,7.58
2017-04-23T05:46:28.631Z,7.6
2017-04-23T05:47:09.290Z,7.56
2017-04-23T05:47:49.894Z,7.57
2017-04-23T05:48:30.509Z,7.57
2017-04-23T05:49:11.131Z,7.63
2017-04-23T05:49:51.698Z,7.56
2017-04-23T05:50:32.264Z,7.57
2017-04-23T05:51:12.861Z,7.58
2017-04-23T05:51:53.572Z,7.61
2017-04-23T05:52:34.163Z,7.6
2017-04-23T05:53:14.744Z,7.54
2017-04-23T05:53:55.331Z,7.54
2017-04-23T05:54:35.939Z,7.45
2017-04-23T05:55:16.554Z,7.47
2017-04-23T05:55:57.250Z,7.42
2017-04-23T05:56:37.836Z,7.35
2017-04-23T05:57:18.432Z,7.45
2017-04-23T05:57:59.001Z,7.4
2017-04-23T05:58:39.587Z,7.4
2017-04-23T05:59:20.217Z,7.36
2017-04-23T06:00:00.778Z,7.47
2017-04-23T06:00:41.380Z,7.43
2017-04-23T06:01:22.019Z,7.43
2017-04-23T06:02:02.612Z,7.43
2017-04-23T06:02:45.903Z,7.4
2017-04-23T06:03:26.502Z,7.47
2017-04-23T06:04:07.092Z,7.47
2017-04-23T06:04:47.677Z,7.54
2017-04-23T06:05:28.270Z,7.53
2017-04-23T06:06:08.854Z,7.61
2017-04-23T06:06:49.433Z,7.61
2017-04-23T06:07:30.025Z,7.56
2017-04-23T06:08:10.632Z,7.63
2017-04-23T06:08:51.223Z,7.63
2017-04-23T06:09:31.813Z,7.63
2017-04-23T06:10:12.365Z,7.66
2017-04-23T06:10:52.941Z,7.67
2017-04-23T06:11:33.528Z,7.58
2017-04-23T06:12:14.152Z,7.61
2017-04-23T06:12:54.766Z,7.63
2017-04-23T06:13:35.334Z,7.72
2017-04-23T06:14:15.935Z,7.72
2017-04-23T06:14:56.597Z,7.69
2017-04-23T06:15:37.197Z,7.72
2017-04-23T06:16:17.806Z,7.75
2017-04-23T06:16:58.482Z,7.73
2017-04-23T06:17:39.063Z,7.7
2017-04-23T06:18:19.673Z,7.73
2017-04-23T06:19:00.263Z,7.73
2017-04-23T06:19:40.907Z,7.75
2017-04-23T06:20:21.466Z,7.72
2017-04-23T06:21:02.041Z,7.76
2017-04-23T06:21:42.636Z,7.77
2017-04-23T06:22:23.216Z,7.75
2017-04-23T06:23:03.819Z,7.72
2017-04-23T06:23:44.504Z,7.7
2017-04-23T06:24:25.149Z,7.7
2017-04-23T06:25:05.733Z,7.77
2017-04-23T06:25:46.307Z,7.76
2017-04-23T06:26:26.924Z,7.76
2017-04-23T06:27:07.522Z,7.8
2017-04-23T06:27:48.101Z,7.73
2017-04-23T06:28:28.686Z,7.9
2017-04-23T06:29:09.284Z,7.91
2017-04-23T06:29:49.914Z,7.77
2017-04-23T06:30:30.495Z,7.83
2017-04-23T06:31:12.326Z,7.87
2017-04-23T06:31:52.479Z,7.88
2017-04-23T06:32:33.077Z,7.83
2017-04-23T06:33:13.664Z,7.85
2017-04-23T06:33:54.287Z,7.83
2017-04-23T06:34:34.839Z,7.87
2017-04-23T06:35:15.418Z,7.85
2017-04-23T06:35:56.056Z,7.93
2017-04-23T06:36:36.665Z,7.97
2017-04-23T06:37:17.282Z,7.95
2017-04-23T06:37:57.999Z,8
2017-04-23T06:38:38.515Z,7.88
2017-04-23T06:39:19.086Z,7.91
2017-04-23T06:39:59.661Z,8
2017-04-23T06:40:40.239Z,8.06
2017-04-23T06:41:20.826Z,8.05
2017-04-23T06:42:01.389Z,8.05
2017-04-23T06:42:41.958Z,8
2017-04-23T06:43:22.607Z,7.97
2017-04-23T06:44:03.163Z,8.05
2017-04-23T06:44:43.739Z,7.97
2017-04-23T06:45:24.330Z,8
2017-04-23T06:46:04.914Z,7.97
2017-04-23T06:46:45.495Z,8.03
2017-04-23T06:47:26.117Z,8
2017-04-23T06:48:06.693Z,8.03
2017-04-23T06:48:47.274Z,7.93
2017-04-23T06:49:27.874Z,7.97
2017-04-23T06:50:08.515Z,7.93
2017-04-23T06:50:49.085Z,7.91
2017-04-23T06:51:29.652Z,8.03
2017-04-23T06:52:10.268Z,7.94
2017-04-23T06:52:50.913Z,8.03
2017-04-23T06:53:31.477Z,7.93
2017-04-23T06:54:12.067Z,7.95
2017-04-23T06:54:52.652Z,7.93
2017-04-23T06:55:33.382Z,8.06
2017-04-23T06:56:13.950Z,8.05
2017-04-23T06:56:54.543Z,7.98
2017-04-23T06:57:35.116Z,8.09
2017-04-23T06:58:15.710Z,8
2017-04-23T06:58:56.302Z,8.09
2017-04-23T06:59:36.888Z,8.01
2017-04-23T07:00:17.498Z,8.05
2017-04-23T07:00:58.094Z,8.01
2017-04-23T07:01:38.704Z,8.01
2017-04-23T07:02:19.311Z,7.91
2017-04-23T07:02:59.945Z,8.1
2017-04-23T07:03:40.544Z,8.12
2017-04-23T07:04:21.124Z,8.08
2017-04-23T07:05:01.731Z,7.98
2017-04-23T07:05:42.336Z,8.01
2017-04-23T07:06:22.942Z,8.09
2017-04-23T07:07:03.511Z,8.03
2017-04-23T07:07:44.080Z,8.05
2017-04-23T07:08:24.667Z,7.94
2017-04-23T07:09:05.237Z,7.9
2017-04-23T07:09:45.824Z,7.9
2017-04-23T07:10:26.393Z,7.85
2017-04-23T07:11:06.967Z,7.83
2017-04-23T07:11:47.540Z,7.87
2017-04-23T07:12:28.113Z,7.8
2017-04-23T07:13:08.702Z,7.77
2017-04-23T07:13:49.283Z,7.69
2017-04-23T07:14:29.882Z,7.63
2017-04-23T07:15:10.456Z,7.61
2017-04-23T07:15:51.051Z,7.6
2017-04-23T07:16:31.654Z,7.61
2017-04-23T07:17:12.242Z,7.6
2017-04-23T07:17:52.834Z,7.61
2017-04-23T07:18:33.426Z,7.66
2017-04-23T07:19:13.987Z,7.63
2017-04-23T07:19:54.579Z,7.63
2017-04-23T07:20:35.233Z,7.6
2017-04-23T07:21:15.924Z,7.69
2017-04-23T07:21:56.536Z,7.69
2017-04-23T07:22:37.113Z,7.73
2017-04-23T07:23:17.674Z,7.75
2017-04-23T07:23:58.261Z,7.75
2017-04-23T07:24:38.931Z,7.8
2017-04-23T07:25:19.498Z,7.79
2017-04-23T07:26:00.081Z,7.9
2017-04-23T07:26:40.745Z,7.82
2017-04-23T07:27:21.364Z,7.97
2017-04-23T07:28:01.962Z,7.9
2017-04-23T07:28:42.548Z,7.94
2017-04-23T07:29:23.111Z,8.01
2017-04-23T07:30:03.716Z,7.97
2017-04-23T07:30:44.314Z,8.06
2017-04-23T07:31:24.900Z,7.91
2017-04-23T07:32:05.487Z,7.94
2017-04-23T07:32:46.088Z,7.94
2017-04-23T07:33:26.709Z,7.88
2017-04-23T07:34:07.309Z,7.83
2017-04-23T07:34:47.918Z,7.82
2017-04-23T07:35:28.517Z,7.87
2017-04-23T07:36:09.115Z,8.01
2017-04-23T07:36:49.722Z,8
2017-04-23T07:37:30.317Z,8.01
2017-04-23T07:38:10.923Z,8.15
2017-04-23T07:38:51.550Z,8.12
2017-04-23T07:39:32.115Z,8.27
2017-04-23T07:40:12.702Z,8.3
2017-04-23T07:40:53.298Z,8.31
2017-04-23T07:41:33.875Z,8.33
2017-04-23T07:42:14.475Z,8.42
2017-04-23T07:42:55.066Z,8.49
2017-04-23T07:43:35.679Z,8.51
2017-04-23T07:44:16.250Z,8.56
2017-04-23T07:44:56.852Z,8.55
2017-04-23T07:45:37.442Z,8.48
2017-04-23T07:46:18.046Z,8.41
2017-04-23T07:46:58.660Z,8.51
2017-04-23T07:47:39.259Z,8.52
2017-04-23T07:48:19.864Z,8.38
2017-04-23T07:49:00.435Z,8.44
2017-04-23T07:49:41.031Z,8.46
2017-04-23T07:50:21.642Z,8.49
2017-04-23T07:51:02.257Z,8.46
2017-04-23T07:51:42.843Z,8.44
2017-04-23T07:52:23.410Z,8.48
2017-04-23T07:53:03.984Z,8.48
2017-04-23T07:53:44.574Z,8.52
2017-04-23T07:54:25.147Z,8.46
2017-04-23T07:55:05.756Z,8.53
2017-04-23T07:55:46.345Z,8.48
2017-04-23T07:56:27.013Z,8.42
2017-04-23T07:57:07.599Z,8.38
2017-04-23T07:57:48.275Z,8.45
2017-04-23T07:58:28.857Z,8.46
2017-04-23T07:59:09.465Z,8.52
2017-04-23T07:59:50.073Z,8.36
2017-04-23T08:00:30.648Z,8.45
2017-04-23T08:01:11.231Z,8.51
2017-04-23T08:01:51.821Z,8.52
2017-04-23T08:02:32.443Z,8.49
2017-04-23T08:03:13.021Z,8.46
2017-04-23T08:03:53.606Z,8.51
2017-04-23T08:04:34.181Z,8.49
2017-04-23T08:05:14.765Z,8.48
2017-04-23T08:05:55.444Z,8.52
2017-04-23T08:06:36.032Z,8.46
2017-04-23T08:07:16.607Z,8.51
2017-04-23T08:07:57.189Z,8.42
2017-04-23T08:08:37.772Z,8.45
2017-04-23T08:09:18.343Z,8.36
2017-04-23T08:09:58.951Z,8.31
2017-04-23T08:10:39.512Z,8.31
2017-04-23T08:11:20.093Z,8.33
2017-04-23T08:12:00.748Z,8.28
2017-04-23T08:12:41.355Z,8.27
2017-04-23T08:13:22.001Z,8.34
2017-04-23T08:14:02.610Z,8.36
2017-04-23T08:14:43.194Z,8.46
2017-04-23T08:15:23.817Z,8.51
2017-04-23T08:16:04.411Z,8.53
2017-04-23T08:16:44.998Z,8.52
2017-04-23T08:17:25.577Z,8.51
2017-04-23T08:18:06.165Z,8.63
2017-04-23T08:18:46.810Z,8.64
2017-04-23T08:19:27.424Z,8.58
2017-04-23T08:20:07.988Z,8.64
2017-04-23T08:20:48.593Z,8.67
2017-04-23T08:21:29.156Z,8.74
2017-04-23T08:22:09.721Z,8.81
2017-04-23T08:22:50.288Z,8.92
2017-04-23T08:23:30.875Z,8.89
2017-04-23T08:24:11.469Z,8.94
2017-04-23T08:24:52.048Z,8.79
2017-04-23T08:25:32.656Z,8.88
2017-04-23T08:26:13.265Z,8.79
2017-04-23T08:26:53.904Z,8.76
2017-04-23T08:27:34.516Z,8.81
2017-04-23T08:28:15.089Z,8.81
2017-04-23T08:28:55.665Z,8.69
2017-04-23T08:29:36.262Z,8.63
2017-04-23T08:30:16.866Z,8.58
2017-04-23T08:30:57.439Z,8.55
2017-04-23T08:31:38.004Z,8.49
2017-04-23T08:32:18.615Z,8.55
2017-04-23T08:32:59.216Z,8.53
2017-04-23T08:33:39.830Z,8.48
2017-04-23T08:34:20.420Z,8.41
2017-04-23T08:35:01.061Z,8.49
2017-04-23T08:35:41.655Z,8.42
2017-04-23T08:36:22.251Z,8.48
2017-04-23T08:37:02.850Z,8.49
2017-04-23T08:37:43.461Z,8.41
2017-04-23T08:38:24.034Z,8.63
2017-04-23T08:39:04.623Z,8.58
2017-04-23T08:39:45.219Z,8.66
2017-04-23T08:40:25.822Z,8.78
2017-04-23T08:41:06.409Z,8.71
2017-04-23T08:41:46.997Z,8.74
2017-04-23T08:42:27.586Z,8.82
2017-04-23T08:43:08.175Z,8.85
2017-04-23T08:43:48.760Z,8.87
2017-04-23T08:44:29.358Z,8.92
2017-04-23T08:45:09.980Z,8.97
2017-04-23T08:45:50.559Z,8.94
2017-04-23T08:46:31.148Z,8.91
2017-04-23T08:47:11.725Z,8.91
2017-04-23T08:47:52.294Z,8.88
2017-04-23T08:48:32.867Z,8.81
2017-04-23T08:49:13.435Z,8.71
2017-04-23T08:49:54.028Z,8.56
2017-04-23T08:50:34.599Z,8.53
2017-04-23T08:51:15.184Z,8.49
2017-04-23T08:51:55.761Z,8.51
2017-04-23T08:52:36.335Z,8.41
2017-04-23T08:53:16.939Z,8.42
2017-04-23T08:53:57.520Z,8.34
2017-04-23T08:54:38.698Z,8.38
2017-04-23T08:55:19.276Z,8.33
2017-04-23T08:55:59.849Z,8.33
2017-04-23T08:56:40.460Z,8.36
2017-04-23T08:57:21.017Z,8.41
2017-04-23T08:58:01.590Z,8.36
2017-04-23T08:58:42.194Z,8.33
2017-04-23T08:59:22.794Z,8.3
2017-04-23T09:00:03.389Z,8.26
2017-04-23T09:00:43.969Z,8.19
2017-04-23T09:01:24.546Z,8.18
2017-04-23T09:02:05.134Z,8.13
2017-04-23T09:02:45.735Z,8.16
2017-04-23T09:03:26.338Z,8.01